sensor_id;sensor_type;location;lat;lon;timestamp;pressure;altitude;pressure_sealevel;temperature;humidity
62122;BME280;48108;47.532;19.084;2023-04-06T03:58:48;100555.81;;;-1.17;89.38
62122;BME280;48108;47.532;19.084;2023-04-06T04:01:55;100558.59;;;-1.19;88.50
62122;BME280;48108;47.532;19.084;2023-04-06T04:04:58;100555.19;;;-1.21;88.51
62122;BME280;48108;47.532;19.084;2023-04-06T04:08:02;100562.37;;;-1.23;89.70
62122;BME280;48108;47.532;19.084;2023-04-06T04:11:05;100548.31;;;-1.23;90.73
62122;BME280;48108;47.532;19.084;2023-04-06T04:14:09;100547.38;;;-1.22;90.07
62122;BME280;48108;47.532;19.084;2023-04-06T04:17:12;100546.91;;;-1.29;89.70
62122;BME280;48108;47.532;19.084;2023-04-06T04:20:15;100546.91;;;-1.29;90.69
62122;BME280;48108;47.532;19.084;2023-04-06T04:23:23;100544.63;;;-1.21;92.01
62122;BME280;48108;47.532;19.084;2023-04-06T04:26:28;100546.34;;;-1.20;88.10
62122;BME280;48108;47.532;19.084;2023-04-06T04:29:31;100544.59;;;-1.06;87.79
62122;BME280;48108;47.532;19.084;2023-04-06T04:32:35;100539.28;;;-1.06;88.68
62122;BME280;48108;47.532;19.084;2023-04-06T04:35:39;100538.91;;;-1.00;87.86
62122;BME280;48108;47.532;19.084;2023-04-06T04:38:43;100537.66;;;-0.95;87.67
62122;BME280;48108;47.532;19.084;2023-04-06T04:41:47;100531.34;;;-0.79;82.40
62122;BME280;48108;47.532;19.084;2023-04-06T04:44:51;100527.72;;;-0.51;75.91
62122;BME280;48108;47.532;19.084;2023-04-06T04:47:55;100523.09;;;-0.35;72.21
62122;BME280;48108;47.532;19.084;2023-04-06T04:51:00;100522.59;;;-0.14;71.64
62122;BME280;48108;47.532;19.084;2023-04-06T04:54:04;100531.91;;;-0.09;69.86
62122;BME280;48108;47.532;19.084;2023-04-06T04:57:07;100538.44;;;-0.02;70.61
62122;BME280;48108;47.532;19.084;2023-04-06T05:00:12;100529.66;;;-0.02;69.19
62122;BME280;48108;47.532;19.084;2023-04-06T05:03:21;100536.63;;;0.25;67.45
62122;BME280;48108;47.532;19.084;2023-04-06T05:06:28;100537.38;;;0.27;67.16
62122;BME280;48108;47.532;19.084;2023-04-06T05:09:31;100526.56;;;0.30;66.12
62122;BME280;48108;47.532;19.084;2023-04-06T05:12:34;100527.72;;;0.38;65.39
62122;BME280;48108;47.532;19.084;2023-04-06T05:15:38;100517.41;;;0.47;65.79
62122;BME280;48108;47.532;19.084;2023-04-06T05:18:42;100511.69;;;0.53;65.86
62122;BME280;48108;47.532;19.084;2023-04-06T05:21:46;100506.34;;;0.65;65.57
62122;BME280;48108;47.532;19.084;2023-04-06T05:24:49;100509.06;;;0.77;63.93
62122;BME280;48108;47.532;19.084;2023-04-06T05:27:52;100502.34;;;0.84;63.51
62122;BME280;48108;47.532;19.084;2023-04-06T05:30:59;100499.00;;;1.06;62.84
62122;BME280;48108;47.532;19.084;2023-04-06T05:34:03;100501.84;;;1.27;61.68
62122;BME280;48108;47.532;19.084;2023-04-06T05:37:06;100494.63;;;1.40;61.28
62122;BME280;48108;47.532;19.084;2023-04-06T05:40:10;100496.44;;;1.40;59.84
62122;BME280;48108;47.532;19.084;2023-04-06T05:43:14;100494.91;;;1.48;60.39
62122;BME280;48108;47.532;19.084;2023-04-06T05:46:18;100485.28;;;1.58;60.32
62122;BME280;48108;47.532;19.084;2023-04-06T05:49:21;100488.31;;;1.65;58.48
62122;BME280;48108;47.532;19.084;2023-04-06T05:52:24;100487.22;;;1.68;59.13
62122;BME280;48108;47.532;19.084;2023-04-06T05:55:28;100483.09;;;1.64;58.46
62122;BME280;48108;47.532;19.084;2023-04-06T05:58:33;100476.12;;;1.63;59.33
62122;BME280;48108;47.532;19.084;2023-04-06T06:01:36;100479.28;;;1.68;59.17
62122;BME280;48108;47.532;19.084;2023-04-06T06:04:40;100475.66;;;1.69;58.79
62122;BME280;48108;47.532;19.084;2023-04-06T06:07:43;100477.44;;;1.57;58.95
62122;BME280;48108;47.532;19.084;2023-04-06T06:10:47;100476.59;;;1.56;59.00
62122;BME280;48108;47.532;19.084;2023-04-06T06:13:51;100475.28;;;1.62;59.16
62122;BME280;48108;47.532;19.084;2023-04-06T06:16:54;100475.16;;;1.64;58.64
62122;BME280;48108;47.532;19.084;2023-04-06T06:19:57;100468.03;;;1.75;58.26
62122;BME280;48108;47.532;19.084;2023-04-06T06:23:01;100469.50;;;1.79;58.35
62122;BME280;48108;47.532;19.084;2023-04-06T06:26:09;100466.03;;;1.90;57.29
62122;BME280;48108;47.532;19.084;2023-04-06T06:29:12;100460.94;;;2.10;57.89
62122;BME280;48108;47.532;19.084;2023-04-06T06:32:15;100459.97;;;2.22;57.07
62122;BME280;48108;47.532;19.084;2023-04-06T06:35:19;100454.53;;;2.46;56.29
62122;BME280;48108;47.532;19.084;2023-04-06T06:38:23;100450.72;;;2.60;55.63
62122;BME280;48108;47.532;19.084;2023-04-06T06:41:26;100446.25;;;2.92;55.14
62122;BME280;48108;47.532;19.084;2023-04-06T06:44:29;100445.78;;;2.99;53.41
62122;BME280;48108;47.532;19.084;2023-04-06T06:47:33;100441.38;;;3.30;51.60
62122;BME280;48108;47.532;19.084;2023-04-06T06:50:35;100441.38;;;3.30;51.08
62122;BME280;48108;47.532;19.084;2023-04-06T06:53:39;100439.84;;;3.48;50.18
62122;BME280;48108;47.532;19.084;2023-04-06T06:56:43;100438.13;;;3.47;49.92
62122;BME280;48108;47.532;19.084;2023-04-06T06:59:46;100439.50;;;3.41;49.73
62122;BME280;48108;47.532;19.084;2023-04-06T07:02:49;100433.13;;;3.54;50.02
62122;BME280;48108;47.532;19.084;2023-04-06T07:05:53;100427.47;;;3.68;49.30
62122;BME280;48108;47.532;19.084;2023-04-06T07:08:56;100431.50;;;3.62;49.36
62122;BME280;48108;47.532;19.084;2023-04-06T07:11:59;100436.91;;;3.72;49.73
62122;BME280;48108;47.532;19.084;2023-04-06T07:15:05;100432.78;;;3.89;48.31
62122;BME280;48108;47.532;19.084;2023-04-06T07:18:08;100436.22;;;4.11;48.13
62122;BME280;48108;47.532;19.084;2023-04-06T07:21:11;100431.91;;;4.19;47.29
62122;BME280;48108;47.532;19.084;2023-04-06T07:24:15;100435.56;;;4.28;47.36
62122;BME280;48108;47.532;19.084;2023-04-06T07:27:18;100437.81;;;4.32;46.50
62122;BME280;48108;47.532;19.084;2023-04-06T07:30:21;100433.25;;;4.54;45.92
62122;BME280;48108;47.532;19.084;2023-04-06T07:33:25;100433.13;;;4.75;45.60
62122;BME280;48108;47.532;19.084;2023-04-06T07:36:32;100430.91;;;4.80;44.99
62122;BME280;48108;47.532;19.084;2023-04-06T07:39:35;100430.88;;;4.99;44.77
62122;BME280;48108;47.532;19.084;2023-04-06T07:42:39;100423.47;;;5.03;43.92
62122;BME280;48108;47.532;19.084;2023-04-06T07:45:42;100420.78;;;4.84;44.06
62122;BME280;48108;47.532;19.084;2023-04-06T07:48:46;100420.22;;;4.80;44.66
62122;BME280;48108;47.532;19.084;2023-04-06T07:51:49;100416.72;;;4.89;44.63
62122;BME280;48108;47.532;19.084;2023-04-06T07:54:52;100417.56;;;5.09;44.48
62122;BME280;48108;47.532;19.084;2023-04-06T07:57:55;100417.81;;;5.35;44.08
62122;BME280;48108;47.532;19.084;2023-04-06T08:00:58;100421.59;;;5.42;43.99
62122;BME280;48108;47.532;19.084;2023-04-06T08:04:02;100418.50;;;5.47;43.03
62122;BME280;48108;47.532;19.084;2023-04-06T08:07:05;100415.53;;;5.40;42.92
62122;BME280;48108;47.532;19.084;2023-04-06T08:10:08;100417.06;;;5.53;42.95
62122;BME280;48108;47.532;19.084;2023-04-06T08:13:12;100414.34;;;5.72;42.54
62122;BME280;48108;47.532;19.084;2023-04-06T08:16:15;100409.50;;;5.95;42.59
62122;BME280;48108;47.532;19.084;2023-04-06T08:19:18;100407.25;;;6.00;41.98
62122;BME280;48108;47.532;19.084;2023-04-06T08:22:21;100409.66;;;5.84;42.37
62122;BME280;48108;47.532;19.084;2023-04-06T08:25:24;100405.00;;;5.96;41.88
62122;BME280;48108;47.532;19.084;2023-04-06T08:28:27;100405.16;;;5.94;41.64
62122;BME280;48108;47.532;19.084;2023-04-06T08:31:30;100391.34;;;5.99;41.73
62122;BME280;48108;47.532;19.084;2023-04-06T08:34:33;100396.72;;;6.26;41.31
62122;BME280;48108;47.532;19.084;2023-04-06T08:37:36;100387.81;;;6.53;41.32
62122;BME280;48108;47.532;19.084;2023-04-06T08:40:40;100386.06;;;6.62;40.19
62122;BME280;48108;47.532;19.084;2023-04-06T08:46:51;100378.34;;;6.77;41.04
62122;BME280;48108;47.532;19.084;2023-04-06T08:49:55;100375.22;;;7.25;39.69
62122;BME280;48108;47.532;19.084;2023-04-06T08:52:59;100379.72;;;7.51;38.99
62122;BME280;48108;47.532;19.084;2023-04-06T08:56:04;100376.37;;;7.23;39.73
62122;BME280;48108;47.532;19.084;2023-04-06T08:59:09;100381.19;;;7.71;39.67
62122;BME280;48108;47.532;19.084;2023-04-06T09:02:17;100379.72;;;7.51;37.84
62122;BME280;48108;47.532;19.084;2023-04-06T09:05:21;100380.44;;;7.09;37.09
62122;BME280;48108;47.532;19.084;2023-04-06T09:08:27;100374.50;;;6.79;37.44
62122;BME280;48108;47.532;19.084;2023-04-06T09:11:44;100366.69;;;7.30;37.21
62122;BME280;48108;47.532;19.084;2023-04-06T09:14:48;100376.31;;;7.41;36.33
62122;BME280;48108;47.532;19.084;2023-04-06T09:17:51;100369.37;;;7.82;36.88
62122;BME280;48108;47.532;19.084;2023-04-06T09:20:58;100366.44;;;7.67;35.82
62122;BME280;48108;47.532;19.084;2023-04-06T09:24:02;100367.06;;;7.61;36.41
62122;BME280;48108;47.532;19.084;2023-04-06T09:27:05;100365.19;;;7.88;35.96
62122;BME280;48108;47.532;19.084;2023-04-06T09:30:10;100362.78;;;7.77;35.88
62122;BME280;48108;47.532;19.084;2023-04-06T09:33:23;100360.88;;;7.61;36.44
62122;BME280;48108;47.532;19.084;2023-04-06T09:36:36;100347.59;;;7.85;36.42
62122;BME280;48108;47.532;19.084;2023-04-06T09:39:44;100360.56;;;8.06;36.20
62122;BME280;48108;47.532;19.084;2023-04-06T09:42:50;100358.22;;;8.46;35.60
62122;BME280;48108;47.532;19.084;2023-04-06T09:46:00;100354.22;;;8.66;35.19
62122;BME280;48108;47.532;19.084;2023-04-06T09:49:07;100359.78;;;8.14;34.70
62122;BME280;48108;47.532;19.084;2023-04-06T09:52:11;100359.75;;;8.06;35.00
62122;BME280;48108;47.532;19.084;2023-04-06T09:55:30;100354.88;;;8.52;34.81
62122;BME280;48108;47.532;19.084;2023-04-06T09:58:36;100346.69;;;8.78;33.91
62122;BME280;48108;47.532;19.084;2023-04-06T10:01:40;100344.00;;;8.86;33.95
62122;BME280;48108;47.532;19.084;2023-04-06T10:04:50;100338.44;;;9.20;34.72
62122;BME280;48108;47.532;19.084;2023-04-06T10:07:57;100339.06;;;9.47;33.35
62122;BME280;48108;47.532;19.084;2023-04-06T10:11:03;100339.13;;;9.22;33.86
62122;BME280;48108;47.532;19.084;2023-04-06T10:14:06;100332.34;;;9.51;33.56
62122;BME280;48108;47.532;19.084;2023-04-06T10:17:09;100317.22;;;9.50;33.33
62122;BME280;48108;47.532;19.084;2023-04-06T10:20:53;100330.91;;;9.07;33.00
62122;BME280;48108;47.532;19.084;2023-04-06T10:24:00;100325.59;;;9.55;33.28
62122;BME280;48108;47.532;19.084;2023-04-06T10:27:03;100326.09;;;9.59;32.48
62122;BME280;48108;47.532;19.084;2023-04-06T10:30:07;100308.03;;;9.84;33.13
62122;BME280;48108;47.532;19.084;2023-04-06T10:36:23;100305.78;;;9.95;32.61
62122;BME280;48108;47.532;19.084;2023-04-06T10:39:27;100298.00;;;10.40;32.28
62122;BME280;48108;47.532;19.084;2023-04-06T10:42:37;100299.44;;;10.28;31.77
62122;BME280;48108;47.532;19.084;2023-04-06T10:45:40;100305.66;;;9.41;32.63
62122;BME280;48108;47.532;19.084;2023-04-06T10:48:45;100306.75;;;8.91;33.25
62122;BME280;48108;47.532;19.084;2023-04-06T10:51:56;100298.91;;;9.53;32.69
62122;BME280;48108;47.532;19.084;2023-04-06T10:54:59;100292.13;;;10.05;32.19
62122;BME280;48108;47.532;19.084;2023-04-06T10:58:06;100290.94;;;10.39;31.31
62122;BME280;48108;47.532;19.084;2023-04-06T11:01:10;100282.69;;;10.40;30.62
62122;BME280;48108;47.532;19.084;2023-04-06T11:04:17;100279.69;;;10.35;32.36
62122;BME280;48108;47.532;19.084;2023-04-06T11:07:25;100272.81;;;10.56;31.90
62122;BME280;48108;47.532;19.084;2023-04-06T11:10:29;100270.03;;;10.87;32.31
62122;BME280;48108;47.532;19.084;2023-04-06T11:13:58;100274.31;;;10.96;29.36
62122;BME280;48108;47.532;19.084;2023-04-06T11:17:01;100278.91;;;10.73;30.15
62122;BME280;48108;47.532;19.084;2023-04-06T11:20:10;100272.41;;;10.82;29.95
62122;BME280;48108;47.532;19.084;2023-04-06T11:23:22;100271.69;;;10.50;29.81
62122;BME280;48108;47.532;19.084;2023-04-06T11:26:25;100270.34;;;10.69;29.86
62122;BME280;48108;47.532;19.084;2023-04-06T11:29:29;100265.31;;;11.04;30.04
62122;BME280;48108;47.532;19.084;2023-04-06T11:32:44;100271.25;;;10.61;29.54
62122;BME280;48108;47.532;19.084;2023-04-06T11:35:47;100263.84;;;10.63;31.47
62122;BME280;48108;47.532;19.084;2023-04-06T11:38:50;100259.84;;;11.86;30.19
62122;BME280;48108;47.532;19.084;2023-04-06T11:41:54;100252.25;;;12.76;28.23
62122;BME280;48108;47.532;19.084;2023-04-06T11:45:00;100250.25;;;12.84;26.43
62122;BME280;48108;47.532;19.084;2023-04-06T11:48:03;100253.81;;;12.91;26.32
62122;BME280;48108;47.532;19.084;2023-04-06T11:51:07;100247.63;;;12.98;26.11
62122;BME280;48108;47.532;19.084;2023-04-06T11:54:10;100253.16;;;13.11;27.08
62122;BME280;48108;47.532;19.084;2023-04-06T11:57:13;100248.22;;;11.86;28.02
62122;BME280;48108;47.532;19.084;2023-04-06T12:00:17;100237.91;;;10.85;29.23
62122;BME280;48108;47.532;19.084;2023-04-06T12:03:20;100237.34;;;10.29;30.31
62122;BME280;48108;47.532;19.084;2023-04-06T12:06:24;100238.84;;;10.32;30.86
62122;BME280;48108;47.532;19.084;2023-04-06T12:09:28;100246.00;;;9.85;30.24
62122;BME280;48108;47.532;19.084;2023-04-06T12:12:32;100243.81;;;9.89;30.98
62122;BME280;48108;47.532;19.084;2023-04-06T12:15:35;100239.16;;;10.06;30.76
62122;BME280;48108;47.532;19.084;2023-04-06T12:18:38;100248.56;;;9.79;30.80
62122;BME280;48108;47.532;19.084;2023-04-06T12:21:41;100244.53;;;9.43;30.34
62122;BME280;48108;47.532;19.084;2023-04-06T12:24:44;100249.03;;;9.51;30.99
62122;BME280;48108;47.532;19.084;2023-04-06T12:27:47;100242.75;;;9.67;30.64
62122;BME280;48108;47.532;19.084;2023-04-06T12:30:51;100235.28;;;10.08;30.13
62122;BME280;48108;47.532;19.084;2023-04-06T12:33:54;100226.09;;;11.61;29.03
62122;BME280;48108;47.532;19.084;2023-04-06T12:36:58;100223.75;;;12.73;27.56
62122;BME280;48108;47.532;19.084;2023-04-06T12:40:01;100228.09;;;12.24;27.58
62122;BME280;48108;47.532;19.084;2023-04-06T12:43:07;100222.38;;;12.13;28.11
62122;BME280;48108;47.532;19.084;2023-04-06T12:46:11;100215.25;;;11.24;28.44
62122;BME280;48108;47.532;19.084;2023-04-06T12:49:14;100210.41;;;11.05;29.14
62122;BME280;48108;47.532;19.084;2023-04-06T12:52:21;100216.94;;;11.25;29.88
62122;BME280;48108;47.532;19.084;2023-04-06T12:55:24;100216.37;;;11.30;29.87
62122;BME280;48108;47.532;19.084;2023-04-06T12:58:28;100210.91;;;11.38;29.73
62122;BME280;48108;47.532;19.084;2023-04-06T13:01:32;100212.12;;;11.21;29.68
62122;BME280;48108;47.532;19.084;2023-04-06T13:04:36;100216.37;;;11.15;30.00
62122;BME280;48108;47.532;19.084;2023-04-06T13:07:38;100218.31;;;10.92;30.85
62122;BME280;48108;47.532;19.084;2023-04-06T13:10:46;100208.56;;;11.05;30.75
62122;BME280;48108;47.532;19.084;2023-04-06T13:13:50;100212.56;;;11.09;31.49
62122;BME280;48108;47.532;19.084;2023-04-06T13:16:54;100208.66;;;10.97;33.16
62122;BME280;48108;47.532;19.084;2023-04-06T13:19:57;100214.44;;;10.56;32.63
62122;BME280;48108;47.532;19.084;2023-04-06T13:23:00;100206.06;;;10.51;33.62
62122;BME280;48108;47.532;19.084;2023-04-06T13:26:05;100197.94;;;10.13;33.20
62122;BME280;48108;47.532;19.084;2023-04-06T13:29:08;100208.50;;;10.15;32.92
62122;BME280;48108;47.532;19.084;2023-04-06T13:32:11;100204.13;;;10.14;33.19
62122;BME280;48108;47.532;19.084;2023-04-06T13:35:14;100221.16;;;9.83;33.78
62122;BME280;48108;47.532;19.084;2023-04-06T13:38:17;100210.56;;;9.82;34.21
62122;BME280;48108;47.532;19.084;2023-04-06T13:41:21;100209.34;;;9.61;35.56
62122;BME280;48108;47.532;19.084;2023-04-06T13:44:24;100205.19;;;9.82;35.85
62122;BME280;48108;47.532;19.084;2023-04-06T13:47:27;100217.84;;;9.73;35.88
62122;BME280;48108;47.532;19.084;2023-04-06T13:50:32;100211.00;;;9.93;36.30
62122;BME280;48108;47.532;19.084;2023-04-06T13:53:36;100207.06;;;10.04;35.79
62122;BME280;48108;47.532;19.084;2023-04-06T13:56:41;100192.78;;;9.81;36.44
62122;BME280;48108;47.532;19.084;2023-04-06T13:59:45;100194.56;;;10.11;35.77
62122;BME280;48108;47.532;19.084;2023-04-06T14:02:48;100191.81;;;10.28;34.86
62122;BME280;48108;47.532;19.084;2023-04-06T14:05:53;100188.47;;;10.17;34.22
62122;BME280;48108;47.532;19.084;2023-04-06T14:08:58;100188.06;;;10.06;33.89
62122;BME280;48108;47.532;19.084;2023-04-06T14:12:01;100191.78;;;10.05;33.58
62122;BME280;48108;47.532;19.084;2023-04-06T14:15:04;100186.75;;;10.02;34.70
62122;BME280;48108;47.532;19.084;2023-04-06T14:18:08;100187.09;;;9.75;34.56
62122;BME280;48108;47.532;19.084;2023-04-06T14:21:11;100187.03;;;9.84;34.30
62122;BME280;48108;47.532;19.084;2023-04-06T14:24:14;100181.19;;;9.80;35.08
62122;BME280;48108;47.532;19.084;2023-04-06T14:27:17;100187.59;;;9.71;34.57
62122;BME280;48108;47.532;19.084;2023-04-06T14:30:20;100196.09;;;9.60;35.97
62122;BME280;48108;47.532;19.084;2023-04-06T14:33:23;100197.72;;;9.29;36.61
62122;BME280;48108;47.532;19.084;2023-04-06T14:36:27;100194.41;;;9.19;36.46
62122;BME280;48108;47.532;19.084;2023-04-06T14:39:31;100199.69;;;8.96;36.16
62122;BME280;48108;47.532;19.084;2023-04-06T14:42:35;100194.00;;;8.83;36.39
62122;BME280;48108;47.532;19.084;2023-04-06T14:45:39;100210.09;;;8.83;38.07
62122;BME280;48108;47.532;19.084;2023-04-06T14:48:42;100210.81;;;8.44;39.29
62122;BME280;48108;47.532;19.084;2023-04-06T14:51:45;100214.34;;;8.53;40.91
62122;BME280;48108;47.532;19.084;2023-04-06T14:54:48;100217.84;;;8.29;41.28
62122;BME280;48108;47.532;19.084;2023-04-06T14:57:51;100221.66;;;8.18;42.09
62122;BME280;48108;47.532;19.084;2023-04-06T15:00:58;100213.78;;;8.08;42.95
62122;BME280;48108;47.532;19.084;2023-04-06T15:04:03;100219.13;;;8.00;42.97
62122;BME280;48108;47.532;19.084;2023-04-06T15:07:06;100235.41;;;8.07;43.62
62122;BME280;48108;47.532;19.084;2023-04-06T15:10:10;100230.16;;;7.89;46.24
62122;BME280;48108;47.532;19.084;2023-04-06T15:13:16;100251.16;;;7.51;49.20
62122;BME280;48108;47.532;19.084;2023-04-06T15:16:18;100242.56;;;7.39;50.29
62122;BME280;48108;47.532;19.084;2023-04-06T15:19:21;100236.00;;;7.34;50.49
62122;BME280;48108;47.532;19.084;2023-04-06T15:22:24;100234.28;;;7.24;51.14
62122;BME280;48108;47.532;19.084;2023-04-06T15:25:27;100246.09;;;7.06;53.09
62122;BME280;48108;47.532;19.084;2023-04-06T15:28:30;100239.97;;;6.95;54.25
62122;BME280;48108;47.532;19.084;2023-04-06T15:31:33;100242.28;;;6.90;54.92
62122;BME280;48108;47.532;19.084;2023-04-06T15:34:58;100245.56;;;6.76;55.94
62122;BME280;48108;47.532;19.084;2023-04-06T15:38:02;100242.66;;;6.69;56.15
62122;BME280;48108;47.532;19.084;2023-04-06T15:41:04;100246.53;;;6.75;57.73
62122;BME280;48108;47.532;19.084;2023-04-06T15:44:07;100242.06;;;6.57;56.78
62122;BME280;48108;47.532;19.084;2023-04-06T15:47:10;100242.59;;;6.61;57.22
62122;BME280;48108;47.532;19.084;2023-04-06T15:50:14;100237.63;;;6.48;56.88
62122;BME280;48108;47.532;19.084;2023-04-06T15:53:17;100241.69;;;6.52;56.41
62122;BME280;48108;47.532;19.084;2023-04-06T15:56:20;100252.47;;;6.43;57.17
